Time;durP1;ratioP1;P1;durP2;ratioP2;P2;SDS_P1;SDS_P2;PMS_P1;PMS_P2;Temp;Humidity;BMP_temperature;BMP_pressure;BME280_temperature;BME280_humidity;BME280_pressure;Samples;Min_cycle;Max_cycle;Signal;HPM_P1;HPM_P2
2022/10/29 00:01:48;;;;;;;0.50;0.50;;;15.00;96.30;;;;;;5075324;28;20167;-73
2022/10/29 00:04:14;;;;;;;0.40;0.40;;;;;;;;;;5075244;28;20186;-71
2022/10/29 00:06:40;;;;;;;0.80;0.80;;;15.00;94.80;;;;;;5075067;28;20179;-73
2022/10/29 00:09:05;;;;;;;0.40;0.40;;;15.00;95.50;;;;;;5074782;28;20465;-72
2022/10/29 00:11:33;;;;;;;0.80;0.80;;;15.00;95.20;;;;;;5075178;28;20198;-72
2022/10/29 00:14:00;;;;;;;1.30;1.00;;;15.00;94.90;;;;;;5074963;28;20205;-70
2022/10/29 00:16:28;;;;;;;0.40;0.40;;;15.00;94.60;;;;;;5074979;28;20430;-74
2022/10/29 00:18:55;;;;;;;0.40;0.40;;;14.80;99.90;;;;;;5074695;28;20399;-71
2022/10/29 00:21:23;;;;;;;0.93;0.60;;;14.90;94.70;;;;;;5074888;28;20433;-73
2022/10/29 00:23:50;;;;;;;0.83;0.83;;;14.90;94.70;;;;;;5074766;28;20401;-74
2022/10/29 00:26:17;;;;;;;1.90;0.80;;;14.90;94.80;;;;;;5074454;28;20835;-71
2022/10/29 00:28:43;;;;;;;2.47;1.33;;;14.90;94.90;;;;;;5075243;28;20741;-69
2022/10/29 00:31:15;;;;;;;1.80;0.50;;;14.90;95.20;;;;;;5074432;28;20427;-73
2022/10/29 00:33:41;;;;;;;0.43;0.43;;;14.80;95.60;;;;;;5074599;28;20240;-73
2022/10/29 00:36:14;;;;;;;0.67;0.67;;;14.80;95.80;;;;;;5074489;28;20396;-73
2022/10/29 00:38:40;;;;;;;0.40;0.40;;;14.80;95.80;;;;;;5074663;28;20480;-72
2022/10/29 00:41:09;;;;;;;4.33;1.00;;;14.70;95.30;;;;;;5074236;28;20416;-72
2022/10/29 00:43:37;;;;;;;1.03;0.80;;;14.60;95.30;;;;;;5074178;28;20411;-72
2022/10/29 00:46:16;;;;;;;0.40;0.40;;;14.60;95.60;;;;;;5074256;28;20396;-70
2022/10/29 00:48:45;;;;;;;1.23;1.23;;;14.60;95.60;;;;;;5074410;28;20405;-73
2022/10/29 00:51:13;;;;;;;0.80;0.80;;;14.60;94.90;;;;;;5074284;28;20398;-71
2022/10/29 00:53:46;;;;;;;0.60;0.50;;;14.60;95.30;;;;;;5074144;28;20467;-72
2022/10/29 00:56:12;;;;;;;1.80;0.93;;;14.60;95.40;;;;;;5073129;28;20420;-71
2022/10/29 00:58:39;;;;;;;0.50;0.40;;;;;;;;;;5074061;28;20399;-71
2022/10/29 01:01:04;;;;;;;0.60;0.60;;;14.70;94.80;;;;;;5073792;28;20424;-71
2022/10/29 01:03:30;;;;;;;1.17;0.73;;;14.70;94.50;;;;;;5074013;28;20402;-73
2022/10/29 01:05:56;;;;;;;0.60;0.60;;;;;;;;;;5073824;28;20414;-71
2022/10/29 01:08:22;;;;;;;0.63;0.63;;;14.50;95.10;;;;;;5073757;28;20226;-71
2022/10/29 01:10:53;;;;;;;0.90;0.60;;;14.50;95.50;;;;;;5073618;28;20426;-71
2022/10/29 01:13:25;;;;;;;0.40;0.40;;;14.50;95.60;;;;;;5074021;28;20207;-71
2022/10/29 01:16:26;;;;;;;0.90;0.90;;;14.50;96.00;;;;;;5073912;28;20821;-71
2022/10/29 01:19:11;;;;;;;1.07;1.07;;;14.50;99.90;;;;;;5068632;28;20434;-70
2022/10/29 01:21:50;;;;;;;0.30;0.30;;;14.50;95.80;;;;;;5073859;28;20396;-71
2022/10/29 01:24:18;;;;;;;0.97;0.43;;;14.50;95.60;;;;;;5073771;28;20431;-72
2022/10/29 01:26:53;;;;;;;0.70;0.70;;;14.60;95.70;;;;;;5073427;28;20427;-72
2022/10/29 01:29:43;;;;;;;0.93;0.67;;;14.60;96.00;;;;;;5073571;28;20900;-73
2022/10/29 01:32:29;;;;;;;0.40;0.40;;;14.60;96.30;;;;;;5073441;28;20439;-72
2022/10/29 01:35:14;;;;;;;7.80;1.37;;;14.60;96.40;;;;;;5073778;28;20889;-72
2022/10/29 01:38:08;;;;;;;0.97;0.90;;;14.60;95.90;;;;;;5073724;28;20395;-72
2022/10/29 01:40:54;;;;;;;0.63;0.63;;;14.60;96.50;;;;;;5073354;28;20423;-70
2022/10/29 01:43:25;;;;;;;0.83;0.83;;;14.70;96.50;;;;;;5073712;28;20428;-71
2022/10/29 01:46:24;;;;;;;0.40;0.40;;;14.70;96.60;;;;;;5073838;28;20835;-72
2022/10/29 01:48:56;;;;;;;1.70;0.87;;;14.90;99.90;;;;;;5073335;28;20411;-72
2022/10/29 01:51:31;;;;;;;1.33;1.27;;;14.80;96.10;;;;;;5073311;28;20392;-71
2022/10/29 01:53:58;;;;;;;0.60;0.60;;;14.90;95.70;;;;;;5073146;28;20458;-70
2022/10/29 01:56:24;;;;;;;0.80;0.80;;;14.90;95.70;;;;;;5073468;28;20412;-72
2022/10/29 01:58:54;;;;;;;0.50;0.50;;;14.90;99.90;;;;;;5073112;28;20411;-71
2022/10/29 02:01:50;;;;;;;1.70;0.93;;;14.90;96.40;;;;;;5073608;28;20388;-73
2022/10/29 02:04:16;;;;;;;0.40;0.40;;;;;;;;;;5073285;28;20412;-73
2022/10/29 02:07:06;;;;;;;0.40;0.40;;;14.70;96.50;;;;;;5073119;28;20506;-73
2022/10/29 02:09:50;;;;;;;0.57;0.57;;;14.70;96.80;;;;;;5077022;28;20485;-73
2022/10/29 02:12:28;;;;;;;0.70;0.70;;;14.80;96.70;;;;;;5077130;28;20381;-72
2022/10/29 02:15:02;;;;;;;1.47;1.37;;;14.80;96.70;;;;;;5077334;28;20392;-69
2022/10/29 02:17:33;;;;;;;0.50;0.50;;;14.80;96.40;;;;;;5077381;28;20889;-72
2022/10/29 02:20:06;;;;;;;0.50;0.50;;;14.80;96.70;;;;;;5077138;28;20424;-71
2022/10/29 02:22:32;;;;;;;0.70;0.70;;;14.80;96.80;;;;;;5077205;28;20404;-72
2022/10/29 02:24:57;;;;;;;1.10;1.00;;;14.80;96.70;;;;;;5077100;28;20897;-70
2022/10/29 02:27:23;;;;;;;0.40;0.40;;;;;;;;;;5076958;28;20195;-71
2022/10/29 02:29:49;;;;;;;1.03;0.93;;;;;;;;;;5075359;28;20190;-72
2022/10/29 02:32:15;;;;;;;0.40;0.40;;;14.70;96.50;;;;;;5076740;28;20878;-72
2022/10/29 02:34:41;;;;;;;0.47;0.47;;;14.70;96.50;;;;;;5076859;28;20407;-74
2022/10/29 02:37:06;;;;;;;0.60;0.60;;;14.60;95.90;;;;;;5076823;28;20200;-73
2022/10/29 02:39:33;;;;;;;0.40;0.40;;;14.60;95.80;;;;;;5076482;28;20194;-73
2022/10/29 02:41:58;;;;;;;0.57;0.57;;;14.50;95.90;;;;;;5076581;28;20172;-72
2022/10/29 02:44:24;;;;;;;0.40;0.40;;;;;;;;;;5076699;28;20404;-70
2022/10/29 02:46:50;;;;;;;0.50;0.50;;;14.40;96.00;;;;;;5076492;28;20173;-71
2022/10/29 02:49:16;;;;;;;3.33;1.23;;;;;;;;;;5076345;28;20435;-72
2022/10/29 02:51:42;;;;;;;0.60;0.60;;;14.20;96.20;;;;;;5076541;28;20657;-71
2022/10/29 02:54:07;;;;;;;0.40;0.40;;;14.20;96.60;;;;;;5076467;28;20455;-71
2022/10/29 02:56:33;;;;;;;0.80;0.80;;;14.10;96.20;;;;;;5076513;28;20653;-72
2022/10/29 02:58:59;;;;;;;0.30;0.30;;;14.20;99.90;;;;;;5076053;28;20166;-73
2022/10/29 03:01:24;;;;;;;0.50;0.50;;;14.10;95.90;;;;;;5076426;28;20649;-72
2022/10/29 03:03:50;;;;;;;1.13;1.00;;;14.10;95.60;;;;;;5076418;28;20536;-74
2022/10/29 03:06:18;;;;;;;0.50;0.50;;;14.10;95.70;;;;;;5076110;28;20192;-73
2022/10/29 03:08:44;;;;;;;0.77;0.77;;;14.00;95.70;;;;;;5076363;28;20187;-74
2022/10/29 03:11:10;;;;;;;0.40;0.40;;;13.90;95.60;;;;;;5075855;28;20447;-70
2022/10/29 03:13:36;;;;;;;0.40;0.40;;;13.90;95.20;;;;;;5076154;28;20939;-73
2022/10/29 03:16:02;;;;;;;0.30;0.30;;;13.90;95.50;;;;;;5076402;28;20403;-71
2022/10/29 03:18:27;;;;;;;0.60;0.60;;;13.80;95.50;;;;;;5075471;28;20180;-72
2022/10/29 03:20:53;;;;;;;0.90;0.90;;;13.90;95.30;;;;;;5075193;28;20189;-73
2022/10/29 03:23:19;;;;;;;0.60;0.60;;;13.90;95.20;;;;;;5076048;28;20260;-72
2022/10/29 03:25:52;;;;;;;2.93;0.90;;;13.90;95.20;;;;;;5075795;28;20185;-72
2022/10/29 03:28:19;;;;;;;1.90;1.47;;;13.80;95.40;;;;;;5076216;28;20410;-71
2022/10/29 03:30:44;;;;;;;2.03;1.20;;;13.80;95.70;;;;;;5075484;28;20513;-72
2022/10/29 03:33:10;;;;;;;1.00;0.97;;;13.80;96.20;;;;;;5075691;28;20546;-70
2022/10/29 03:35:36;;;;;;;1.40;0.77;;;13.70;96.40;;;;;;5075787;28;20218;-73
2022/10/29 03:38:02;;;;;;;1.17;0.60;;;13.70;96.30;;;;;;5075767;28;20174;-72
2022/10/29 03:40:28;;;;;;;3.80;0.90;;;13.70;96.00;;;;;;5075380;28;20185;-70
2022/10/29 03:42:53;;;;;;;1.57;0.60;;;13.70;95.70;;;;;;5074272;28;20181;-70
2022/10/29 03:45:19;;;;;;;22.73;1.17;;;13.70;95.40;;;;;;5075532;28;20429;-72
2022/10/29 03:47:45;;;;;;;0.87;0.87;;;13.70;95.70;;;;;;5075991;28;20235;-70
2022/10/29 03:50:10;;;;;;;0.80;0.70;;;13.60;96.10;;;;;;5073854;28;20201;-70
2022/10/29 03:52:36;;;;;;;0.80;0.80;;;13.40;96.40;;;;;;5075199;28;20210;-70
2022/10/29 03:55:02;;;;;;;0.40;0.40;;;13.40;96.60;;;;;;5075435;28;20178;-72
2022/10/29 03:57:28;;;;;;;0.40;0.40;;;13.40;96.70;;;;;;5075232;28;20313;-73
2022/10/29 03:59:54;;;;;;;0.50;0.50;;;13.40;96.70;;;;;;5075000;28;20467;-70
2022/10/29 04:02:20;;;;;;;0.40;0.40;;;13.30;96.60;;;;;;5075367;28;20170;-71
2022/10/29 04:04:46;;;;;;;0.80;0.70;;;13.30;96.30;;;;;;5075238;28;20416;-72
2022/10/29 04:07:12;;;;;;;0.40;0.40;;;13.30;96.20;;;;;;5075040;28;20176;-72
2022/10/29 04:09:37;;;;;;;0.40;0.40;;;13.40;96.20;;;;;;5074855;28;20241;-70
2022/10/29 04:12:03;;;;;;;0.50;0.50;;;13.30;96.30;;;;;;5074977;28;20166;-72
2022/10/29 04:14:29;;;;;;;1.23;0.80;;;13.30;96.30;;;;;;5074951;28;20296;-71
2022/10/29 04:16:55;;;;;;;1.43;0.77;;;13.30;96.20;;;;;;5074977;28;20408;-73
2022/10/29 04:19:20;;;;;;;0.73;0.50;;;13.30;96.10;;;;;;5074788;28;20237;-71
2022/10/29 04:21:46;;;;;;;0.40;0.40;;;13.20;96.30;;;;;;5074703;28;20173;-69
2022/10/29 04:24:11;;;;;;;0.80;0.80;;;13.20;96.10;;;;;;5074932;28;20186;-73
2022/10/29 04:26:37;;;;;;;1.07;0.87;;;13.20;96.20;;;;;;5074572;28;20185;-73
2022/10/29 04:29:03;;;;;;;2.33;0.60;;;13.30;99.90;;;;;;5074419;28;20175;-73
2022/10/29 04:31:28;;;;;;;0.90;0.80;;;13.20;96.20;;;;;;5074470;28;20671;-71
2022/10/29 04:33:55;;;;;;;0.50;0.50;;;13.20;95.60;;;;;;5074508;28;20701;-72
2022/10/29 04:36:21;;;;;;;3.13;1.80;;;;;;;;;;5074668;28;20403;-71
2022/10/29 04:38:48;;;;;;;0.40;0.40;;;13.20;95.30;;;;;;5074448;28;20219;-72
2022/10/29 04:41:14;;;;;;;5.03;1.67;;;13.20;95.30;;;;;;5074573;28;20409;-71
2022/10/29 04:43:39;;;;;;;2.73;0.93;;;13.30;95.20;;;;;;5074369;28;20455;-73
2022/10/29 04:46:05;;;;;;;2.00;1.63;;;13.30;95.50;;;;;;5074463;28;20243;-73
2022/10/29 04:48:31;;;;;;;1.03;0.90;;;13.20;95.80;;;;;;5074488;28;20588;-72
2022/10/29 04:50:56;;;;;;;0.47;0.47;;;13.20;96.10;;;;;;5073918;28;20277;-71
2022/10/29 04:53:22;;;;;;;1.03;0.83;;;13.10;96.30;;;;;;5074463;28;20568;-73
2022/10/29 04:55:48;;;;;;;1.33;0.53;;;13.20;96.00;;;;;;5070333;28;20169;-72
2022/10/29 04:58:18;;;;;;;1.07;0.73;;;13.10;95.40;;;;;;5073004;28;20592;-73
2022/10/29 05:00:45;;;;;;;0.50;0.50;;;13.10;95.70;;;;;;5073487;28;20201;-73
2022/10/29 05:03:11;;;;;;;0.97;0.97;;;13.20;95.70;;;;;;5073006;28;20408;-73
2022/10/29 05:05:38;;;;;;;0.67;0.67;;;13.20;95.80;;;;;;5073094;28;20464;-70
2022/10/29 05:08:05;;;;;;;1.73;1.67;;;13.10;95.60;;;;;;5073985;28;20498;-72
2022/10/29 05:10:33;;;;;;;1.50;0.83;;;13.10;95.60;;;;;;5073912;28;20503;-72
2022/10/29 05:13:03;;;;;;;0.60;0.60;;;13.10;95.90;;;;;;5074112;28;20457;-74
2022/10/29 05:15:30;;;;;;;0.40;0.40;;;13.10;96.00;;;;;;5074238;28;20404;-72
2022/10/29 05:17:56;;;;;;;0.67;0.67;;;13.00;95.80;;;;;;5074389;28;20945;-71
2022/10/29 05:20:23;;;;;;;0.50;0.50;;;13.00;95.90;;;;;;5073770;28;20484;-69
2022/10/29 05:22:49;;;;;;;1.70;0.77;;;13.00;96.00;;;;;;5074104;28;20414;-71
2022/10/29 05:25:15;;;;;;;0.60;0.60;;;13.00;95.90;;;;;;5072506;28;20528;-70
2022/10/29 05:27:41;;;;;;;1.37;0.93;;;13.00;95.80;;;;;;5074075;28;20455;-70
2022/10/29 05:30:07;;;;;;;0.40;0.40;;;13.10;95.70;;;;;;5073421;28;20465;-69
2022/10/29 05:32:33;;;;;;;0.30;0.30;;;13.10;95.70;;;;;;5073470;28;20417;-70
2022/10/29 05:34:59;;;;;;;0.80;0.80;;;13.00;95.80;;;;;;5073574;28;20403;-73
2022/10/29 05:37:26;;;;;;;0.50;0.43;;;13.00;95.90;;;;;;5073937;28;20809;-73
2022/10/29 05:39:52;;;;;;;1.03;1.03;;;13.00;95.90;;;;;;5073554;28;20185;-72
2022/10/29 05:42:18;;;;;;;0.77;0.77;;;13.00;95.70;;;;;;5073134;28;20401;-70
2022/10/29 05:44:44;;;;;;;0.40;0.40;;;12.90;95.40;;;;;;5073647;28;20498;-72
2022/10/29 05:47:09;;;;;;;0.70;0.70;;;13.00;95.40;;;;;;5073605;28;20269;-72
2022/10/29 05:49:35;;;;;;;0.40;0.40;;;13.00;95.60;;;;;;5073328;28;20202;-74
2022/10/29 05:52:01;;;;;;;4.60;1.60;;;12.90;95.90;;;;;;5073553;28;20520;-72
2022/10/29 05:54:26;;;;;;;1.83;0.70;;;12.90;96.30;;;;;;5073608;28;20203;-72
2022/10/29 05:56:52;;;;;;;2.07;1.90;;;12.90;96.50;;;;;;5073871;28;20210;-71
2022/10/29 05:59:18;;;;;;;0.83;0.83;;;12.90;96.50;;;;;;5073513;28;20217;-71
2022/10/29 06:01:43;;;;;;;0.37;0.37;;;12.90;96.60;;;;;;5073633;28;20643;-73
2022/10/29 06:04:09;;;;;;;0.63;0.63;;;12.90;96.30;;;;;;5074010;28;20197;-72
2022/10/29 06:06:34;;;;;;;0.40;0.40;;;13.00;96.40;;;;;;5073573;28;20174;-71
2022/10/29 06:09:00;;;;;;;1.37;1.37;;;13.20;99.90;;;;;;5073246;28;20184;-73
2022/10/29 06:11:26;;;;;;;0.40;0.40;;;13.10;95.80;;;;;;5073817;28;20573;-73
2022/10/29 06:13:55;;;;;;;0.40;0.40;;;13.10;95.90;;;;;;5073655;28;20582;-73
2022/10/29 06:16:21;;;;;;;3.43;0.77;;;13.20;95.50;;;;;;5073834;28;20196;-70
2022/10/29 06:18:47;;;;;;;0.63;0.63;;;13.20;95.30;;;;;;5072991;28;20404;-71
2022/10/29 06:21:13;;;;;;;0.37;0.37;;;13.20;95.00;;;;;;5073373;28;20435;-71
2022/10/29 06:23:39;;;;;;;3.70;0.90;;;;;;;;;;5073522;28;20875;-73
2022/10/29 06:26:14;;;;;;;1.00;1.00;;;13.40;94.80;;;;;;5073040;28;20204;-73
2022/10/29 06:28:40;;;;;;;2.10;1.03;;;;;;;;;;5073665;28;20410;-72
2022/10/29 06:31:06;;;;;;;0.93;0.80;;;13.40;95.10;;;;;;5073474;28;20463;-72
2022/10/29 06:33:32;;;;;;;0.97;0.87;;;;;;;;;;5073054;28;20486;-70
2022/10/29 06:35:59;;;;;;;0.97;0.60;;;13.50;95.10;;;;;;5073222;28;20509;-70
2022/10/29 06:38:25;;;;;;;4.10;0.87;;;13.50;95.50;;;;;;5073006;28;20408;-70
2022/10/29 06:40:52;;;;;;;0.30;0.30;;;13.60;95.70;;;;;;5073239;28;20430;-70
2022/10/29 06:43:18;;;;;;;1.30;0.70;;;13.60;95.70;;;;;;5073593;28;20166;-73
2022/10/29 06:45:44;;;;;;;1.17;1.17;;;13.70;95.70;;;;;;5073568;28;20414;-71
2022/10/29 06:48:09;;;;;;;0.47;0.47;;;13.80;95.70;;;;;;5073012;28;20196;-71
2022/10/29 06:50:35;;;;;;;0.30;0.30;;;14.00;95.60;;;;;;5072905;28;20200;-70
2022/10/29 06:53:06;;;;;;;0.30;0.30;;;14.10;95.60;;;;;;5073536;28;20657;-72
2022/10/29 06:55:32;;;;;;;0.83;0.83;;;14.30;94.40;;;;;;5076940;28;20174;-69
2022/10/29 06:58:12;;;;;;;0.57;0.57;;;14.40;94.50;;;;;;5076663;28;20400;-70
2022/10/29 07:00:39;;;;;;;0.60;0.60;;;14.50;94.70;;;;;;5076387;28;20473;-72
2022/10/29 07:03:06;;;;;;;0.60;0.60;;;14.70;94.90;;;;;;5076647;28;20412;-70
2022/10/29 07:05:32;;;;;;;0.40;0.40;;;14.70;94.90;;;;;;5076650;28;20422;-70
2022/10/29 07:08:00;;;;;;;1.60;1.10;;;14.80;95.00;;;;;;5076197;28;20741;-74
2022/10/29 07:10:28;;;;;;;2.37;2.27;;;14.60;94.90;;;;;;5075925;28;20515;-72
2022/10/29 07:12:53;;;;;;;0.60;0.60;;;14.90;95.00;;;;;;5076524;28;20493;-73
2022/10/29 07:15:19;;;;;;;0.70;0.70;;;15.00;94.90;;;;;;5076248;28;20432;-73
2022/10/29 07:18:03;;;;;;;1.37;1.27;;;15.10;94.90;;;;;;5075963;28;20173;-72
2022/10/29 07:20:32;;;;;;;0.93;0.93;;;15.20;94.70;;;;;;5075752;28;20181;-73
2022/10/29 07:22:59;;;;;;;0.60;0.60;;;15.40;94.80;;;;;;5076625;28;20407;-72
2022/10/29 07:25:24;;;;;;;0.77;0.70;;;15.80;94.80;;;;;;5075775;28;20430;-71
2022/10/29 07:27:50;;;;;;;0.40;0.40;;;16.20;94.10;;;;;;5076003;28;20461;-69
2022/10/29 07:30:16;;;;;;;0.30;0.30;;;16.70;93.80;;;;;;5075938;28;20189;-73
2022/10/29 07:32:42;;;;;;;1.07;0.97;;;17.10;93.40;;;;;;5075894;28;20188;-72
2022/10/29 07:35:08;;;;;;;0.83;0.83;;;17.60;92.80;;;;;;5076119;28;20900;-70
2022/10/29 07:37:33;;;;;;;2.77;1.13;;;18.40;92.10;;;;;;5074985;28;20180;-70
2022/10/29 07:39:59;;;;;;;0.73;0.73;;;19.20;91.40;;;;;;5074085;28;20663;-71
2022/10/29 07:42:25;;;;;;;0.40;0.40;;;20.00;90.20;;;;;;5075858;28;20184;-72
2022/10/29 07:44:50;;;;;;;0.30;0.30;;;20.60;88.20;;;;;;5075967;28;20175;-73
2022/10/29 07:47:16;;;;;;;0.50;0.50;;;21.10;86.50;;;;;;5075874;28;20172;-75
2022/10/29 07:49:42;;;;;;;0.63;0.60;;;;;;;;;;5075435;28;20278;-73
2022/10/29 07:52:08;;;;;;;0.43;0.43;;;22.30;82.00;;;;;;5076059;28;20218;-70
2022/10/29 07:54:34;;;;;;;0.40;0.40;;;22.90;79.70;;;;;;5075918;28;20434;-70
2022/10/29 07:57:00;;;;;;;0.77;0.60;;;23.70;78.40;;;;;;5075685;28;20728;-71
2022/10/29 07:59:25;;;;;;;1.00;0.83;;;24.30;76.60;;;;;;5073870;28;20603;-71
2022/10/29 08:01:51;;;;;;;0.93;0.93;;;;;;;;;;5075692;28;20173;-73
2022/10/29 08:04:17;;;;;;;1.33;1.23;;;25.30;71.00;;;;;;5075655;28;20251;-72
2022/10/29 08:06:43;;;;;;;1.10;1.00;;;25.70;69.90;;;;;;5075263;28;20416;-74
2022/10/29 08:09:10;;;;;;;1.33;1.20;;;26.20;85.80;;;;;;5074766;28;20536;-73
2022/10/29 08:11:36;;;;;;;0.93;0.83;;;26.30;68.60;;;;;;5075313;28;20193;-75
2022/10/29 08:14:02;;;;;;;1.83;1.50;;;26.70;67.60;;;;;;5075005;28;20513;-74
2022/10/29 08:16:28;;;;;;;2.47;1.90;;;27.10;65.60;;;;;;5075284;28;20404;-71
2022/10/29 08:18:53;;;;;;;1.57;1.47;;;27.60;61.70;;;;;;5074704;28;20189;-74
2022/10/29 08:21:19;;;;;;;2.93;1.90;;;28.00;60.20;;;;;;5075554;28;20516;-73
2022/10/29 08:23:45;;;;;;;2.30;1.40;;;28.60;59.50;;;;;;5075002;28;20224;-73
2022/10/29 08:26:10;;;;;;;2.00;1.90;;;28.60;56.30;;;;;;5074920;28;20264;-73
2022/10/29 08:28:36;;;;;;;1.70;1.60;;;28.20;56.30;;;;;;5075049;28;20192;-71
2022/10/29 08:31:02;;;;;;;1.43;1.33;;;28.20;57.10;;;;;;5074809;28;20200;-72
2022/10/29 08:33:27;;;;;;;2.40;2.10;;;28.50;57.10;;;;;;5075033;28;20220;-71
2022/10/29 08:35:53;;;;;;;1.20;0.80;;;28.60;56.80;;;;;;5075174;28;20173;-69
2022/10/29 08:38:22;;;;;;;0.97;0.97;;;28.50;56.40;;;;;;5074927;28;20196;-74
2022/10/29 08:41:18;;;;;;;2.57;1.50;;;28.20;56.70;;;;;;5074380;28;20596;-73
2022/10/29 08:44:02;;;;;;;1.63;1.30;;;28.10;56.90;;;;;;5074870;28;20399;-72
2022/10/29 08:46:42;;;;;;;1.77;1.23;;;28.20;56.10;;;;;;5074939;28;20408;-73
2022/10/29 08:49:36;;;;;;;0.70;0.70;;;28.50;56.20;;;;;;5074042;28;20415;-70
2022/10/29 08:52:15;;;;;;;1.43;1.00;;;29.40;55.10;;;;;;5065320;28;20411;-69
2022/10/29 08:54:43;;;;;;;1.30;1.20;;;30.30;53.80;;;;;;5074486;28;20459;-70
2022/10/29 08:57:21;;;;;;;2.70;1.00;;;31.10;51.40;;;;;;5073690;28;20411;-71
2022/10/29 09:00:02;;;;;;;0.87;0.50;;;31.70;48.70;;;;;;5073707;28;20561;-72
2022/10/29 09:02:29;;;;;;;1.10;0.90;;;32.40;46.30;;;;;;5074535;28;20438;-71
2022/10/29 09:04:54;;;;;;;1.07;1.07;;;33.10;45.80;;;;;;5072842;28;20407;-70
2022/10/29 09:07:44;;;;;;;1.47;0.70;;;33.70;44.80;;;;;;5074261;28;20407;-69
2022/10/29 09:10:21;;;;;;;0.70;0.67;;;34.20;44.90;;;;;;5074093;28;20590;-73
2022/10/29 09:13:20;;;;;;;0.60;0.50;;;34.40;45.00;;;;;;5074115;28;20954;-68
2022/10/29 09:16:20;;;;;;;2.33;0.60;;;34.80;44.10;;;;;;5074216;28;20483;-71
2022/10/29 09:19:13;;;;;;;0.70;0.67;;;35.20;43.70;;;;;;5073314;28;20411;-68
2022/10/29 09:22:17;;;;;;;0.60;0.40;;;35.30;43.00;;;;;;5073766;28;20384;-71
2022/10/29 09:25:02;;;;;;;0.57;0.53;;;35.30;41.70;;;;;;5074165;28;20403;-73
2022/10/29 09:27:46;;;;;;;1.73;1.03;;;35.20;41.20;;;;;;5074000;28;20476;-67
2022/10/29 09:30:19;;;;;;;0.50;0.40;;;35.10;40.30;;;;;;5073573;28;20437;-69
2022/10/29 09:33:09;;;;;;;0.60;0.53;;;35.10;41.20;;;;;;5073870;28;20873;-68
2022/10/29 09:35:43;;;;;;;0.60;0.57;;;34.60;41.80;;;;;;5073771;28;20396;-68
2022/10/29 09:38:58;;;;;;;1.10;1.00;;;33.90;41.70;;;;;;5073967;28;20439;-69
2022/10/29 09:41:31;;;;;;;0.80;0.67;;;33.90;42.50;;;;;;5065483;28;20430;-71
2022/10/29 09:44:15;;;;;;;0.67;0.63;;;34.20;41.80;;;;;;5073618;28;20400;-70
2022/10/29 09:47:06;;;;;;;3.30;0.87;;;34.50;41.20;;;;;;5073668;28;20415;-70
2022/10/29 09:49:35;;;;;;;0.60;0.60;;;34.70;40.70;;;;;;5073447;28;20420;-69
2022/10/29 09:52:21;;;;;;;0.80;0.60;;;35.00;35.80;;;;;;5073396;28;20395;-70
2022/10/29 09:54:49;;;;;;;0.40;0.40;;;35.20;40.60;;;;;;5073250;28;20451;-69
2022/10/29 09:57:25;;;;;;;0.53;0.53;;;35.30;38.30;;;;;;5073200;28;20793;-70
2022/10/29 09:59:54;;;;;;;0.50;0.50;;;35.30;34.60;;;;;;5073229;28;20454;-69
2022/10/29 10:02:36;;;;;;;0.60;0.60;;;35.30;38.90;;;;;;5073313;28;20410;-69
2022/10/29 10:05:24;;;;;;;1.63;0.80;;;35.10;37.80;;;;;;5073475;28;20414;-70
2022/10/29 10:08:11;;;;;;;0.60;0.60;;;35.00;36.90;;;;;;5072981;28;20406;-72
2022/10/29 10:10:50;;;;;;;3.70;0.50;;;34.70;38.30;;;;;;5072651;28;20488;-69
2022/10/29 10:13:17;;;;;;;1.97;0.53;;;34.30;39.90;;;;;;5073214;28;20450;-71
2022/10/29 10:15:50;;;;;;;0.50;0.50;;;33.80;36.60;;;;;;5073326;28;20403;-71
2022/10/29 10:18:23;;;;;;;0.60;0.50;;;33.10;40.80;;;;;;5073323;28;20483;-71
2022/10/29 10:20:59;;;;;;;0.40;0.40;;;32.70;40.10;;;;;;5072864;28;20428;-69
2022/10/29 10:23:40;;;;;;;0.50;0.47;;;32.50;42.00;;;;;;5073174;28;20404;-70
2022/10/29 10:26:38;;;;;;;0.47;0.47;;;32.30;41.40;;;;;;5073038;28;20507;-69
2022/10/29 10:29:20;;;;;;;0.73;0.63;;;31.70;55.90;;;;;;5074892;28;20395;-70
2022/10/29 10:31:48;;;;;;;0.40;0.40;;;31.50;44.80;;;;;;5077078;28;20798;-70
2022/10/29 10:34:44;;;;;;;0.47;0.47;;;30.80;42.30;;;;;;5076952;28;20966;-69
2022/10/29 10:37:10;;;;;;;0.60;0.60;;;30.30;44.80;;;;;;5076093;28;20416;-71
2022/10/29 10:39:43;;;;;;;0.80;0.80;;;30.00;44.10;;;;;;5075116;28;20949;-71
2022/10/29 10:42:22;;;;;;;0.40;0.40;;;29.70;43.80;;;;;;5076727;28;20536;-70
2022/10/29 10:44:51;;;;;;;0.30;0.30;;;29.30;46.40;;;;;;5076752;28;20461;-68
2022/10/29 10:47:21;;;;;;;0.43;0.40;;;29.00;46.00;;;;;;5076755;28;20404;-71
2022/10/29 10:49:47;;;;;;;0.60;0.60;;;28.80;44.60;;;;;;5076273;28;20435;-69
2022/10/29 10:52:31;;;;;;;1.03;0.57;;;28.50;44.20;;;;;;5076463;28;20958;-69
2022/10/29 10:55:06;;;;;;;0.53;0.50;;;28.00;46.40;;;;;;5076455;28;20577;-71
2022/10/29 10:57:40;;;;;;;0.60;0.50;;;27.60;46.80;;;;;;5076695;28;20422;-70
2022/10/29 11:00:16;;;;;;;0.90;0.50;;;27.30;48.80;;;;;;5076212;28;20439;-70
2022/10/29 11:02:50;;;;;;;0.57;0.57;;;27.10;48.60;;;;;;5076545;28;20383;-68
2022/10/29 11:05:21;;;;;;;3.03;0.40;;;27.00;49.10;;;;;;5076484;28;20478;-70
2022/10/29 11:08:15;;;;;;;0.40;0.40;;;27.00;48.70;;;;;;5076391;28;20388;-71
2022/10/29 11:11:20;;;;;;;0.50;0.50;;;26.80;49.50;;;;;;5063890;28;20424;-69
2022/10/29 11:13:48;;;;;;;1.03;0.40;;;26.60;49.30;;;;;;4975277;28;20459;-69
2022/10/29 11:16:45;;;;;;;0.70;0.50;;;26.50;48.60;;;;;;5059390;28;20750;-70
2022/10/29 11:19:31;;;;;;;0.40;0.40;;;26.20;64.40;;;;;;5076181;28;20416;-68
2022/10/29 11:22:07;;;;;;;0.40;0.40;;;26.30;49.40;;;;;;5076130;28;20442;-68
2022/10/29 11:24:45;;;;;;;0.60;0.60;;;26.20;47.50;;;;;;5076127;28;20726;-73
2022/10/29 11:27:23;;;;;;;0.50;0.50;;;26.20;50.40;;;;;;5075802;28;20438;-68
2022/10/29 11:30:11;;;;;;;0.63;0.43;;;26.00;49.70;;;;;;5075979;28;20927;-69
2022/10/29 11:32:59;;;;;;;0.40;0.40;;;26.00;51.80;;;;;;5075679;28;20515;-70
2022/10/29 11:35:36;;;;;;;0.30;0.30;;;26.00;52.50;;;;;;5076167;28;20485;-69
2022/10/29 11:38:12;;;;;;;1.27;0.93;;;26.10;52.80;;;;;;5075941;28;20923;-70
2022/10/29 11:40:46;;;;;;;0.83;0.83;;;26.30;52.50;;;;;;5074489;28;20972;-69
2022/10/29 11:43:16;;;;;;;1.50;0.73;;;26.40;51.60;;;;;;5075817;28;20837;-70
2022/10/29 11:46:09;;;;;;;0.40;0.40;;;26.60;51.40;;;;;;5075666;28;20888;-71
2022/10/29 11:49:13;;;;;;;0.57;0.57;;;26.70;51.80;;;;;;5075755;28;20407;-69
2022/10/29 11:52:07;;;;;;;0.40;0.40;;;26.80;52.80;;;;;;5075463;28;20404;-67
2022/10/29 11:54:48;;;;;;;0.43;0.43;;;26.80;53.30;;;;;;5075476;28;20782;-70
2022/10/29 11:57:32;;;;;;;0.50;0.40;;;26.80;54.00;;;;;;5075554;28;20391;-69
2022/10/29 12:00:22;;;;;;;0.40;0.40;;;26.70;51.40;;;;;;5075078;28;20416;-71
2022/10/29 12:03:36;;;;;;;6.37;0.60;;;26.60;48.60;;;;;;5075460;28;20490;-69
2022/10/29 12:06:13;;;;;;;1.40;1.30;;;26.60;47.50;;;;;;5075204;28;20366;-69
2022/10/29 12:09:13;;;;;;;1.07;0.97;;;26.50;49.90;;;;;;5075208;28;20395;-71
2022/10/29 12:12:00;;;;;;;0.40;0.40;;;26.40;49.30;;;;;;5075050;28;20378;-71
2022/10/29 12:14:36;;;;;;;0.47;0.47;;;26.30;49.20;;;;;;5075019;28;20454;-70
2022/10/29 12:17:15;;;;;;;0.40;0.40;;;26.20;48.20;;;;;;5075088;28;20917;-68
2022/10/29 12:20:13;;;;;;;0.40;0.40;;;26.10;50.20;;;;;;5074688;28;20517;-67
2022/10/29 12:22:57;;;;;;;0.40;0.40;;;25.90;49.20;;;;;;5074926;28;20705;-73
2022/10/29 12:26:07;;;;;;;0.50;0.40;;;25.70;48.70;;;;;;5074782;28;20427;-68
2022/10/29 12:29:03;;;;;;;0.40;0.40;;;25.50;48.90;;;;;;5074659;28;20412;-70
2022/10/29 12:31:58;;;;;;;0.50;0.50;;;25.30;48.00;;;;;;5074612;28;20382;-69
2022/10/29 12:34:33;;;;;;;0.43;0.43;;;25.20;48.20;;;;;;5074708;28;20471;-71
2022/10/29 12:37:07;;;;;;;0.67;0.67;;;25.00;47.90;;;;;;5074608;28;20369;-69
2022/10/29 12:39:45;;;;;;;0.40;0.40;;;24.80;50.00;;;;;;5074330;28;20418;-70
2022/10/29 12:42:24;;;;;;;2.00;0.73;;;24.60;52.40;;;;;;5074683;28;20378;-69
2022/10/29 12:44:53;;;;;;;0.30;0.30;;;24.30;51.70;;;;;;5074420;28;20406;-70
2022/10/29 12:47:18;;;;;;;0.37;0.37;;;24.20;51.90;;;;;;5074530;28;20435;-71
2022/10/29 12:50:05;;;;;;;0.50;0.40;;;24.00;52.20;;;;;;5074104;28;20438;-71
2022/10/29 12:52:44;;;;;;;0.40;0.40;;;23.80;52.60;;;;;;5074122;28;20311;-68
2022/10/29 12:55:13;;;;;;;1.17;0.90;;;23.70;52.30;;;;;;5074224;28;20407;-70
2022/10/29 12:57:38;;;;;;;0.60;0.60;;;23.50;53.70;;;;;;5074146;28;20363;-70
2022/10/29 13:00:22;;;;;;;0.93;0.83;;;23.30;54.40;;;;;;5073961;28;20827;-68
2022/10/29 13:02:52;;;;;;;0.40;0.40;;;23.10;54.20;;;;;;5073932;28;20363;-67
2022/10/29 13:05:34;;;;;;;0.70;0.70;;;23.00;55.30;;;;;;5073909;28;20884;-67
2022/10/29 13:08:03;;;;;;;0.40;0.40;;;22.90;54.80;;;;;;5074185;28;20756;-68
2022/10/29 13:10:31;;;;;;;1.13;0.53;;;22.90;55.10;;;;;;5073772;28;20393;-71
2022/10/29 13:13:17;;;;;;;0.80;0.80;;;22.80;54.30;;;;;;5073672;28;20542;-69
2022/10/29 13:15:44;;;;;;;0.40;0.40;;;22.70;54.70;;;;;;5073938;28;20410;-67
2022/10/29 13:19:10;;;;;;;0.30;0.30;;;22.70;54.30;;;;;;5073752;28;20398;-70